sensor_id;sensor_type;location;lat;lon;timestamp;pressure;altitude;pressure_sealevel;temperature;humidity
62333;BME280;48624;49.812;8.562;2023-08-06T00:01:36;99691.53;;;15.68;100.00
62333;BME280;48624;49.812;8.562;2023-08-06T00:04:01;99688.59;;;15.71;100.00
62333;BME280;48624;49.812;8.562;2023-08-06T00:06:26;99688.66;;;15.61;100.00
62333;BME280;48624;49.812;8.562;2023-08-06T00:08:52;99681.50;;;15.62;100.00
62333;BME280;48624;49.812;8.562;2023-08-06T00:11:17;99683.38;;;15.70;100.00
62333;BME280;48624;49.812;8.562;2023-08-06T00:13:43;99685.59;;;15.74;100.00
62333;BME280;48624;49.812;8.562;2023-08-06T00:16:10;99672.97;;;15.85;100.00
62333;BME280;48624;49.812;8.562;2023-08-06T00:18:36;99669.25;;;15.77;100.00
62333;BME280;48624;49.812;8.562;2023-08-06T00:21:01;99671.72;;;15.71;100.00
62333;BME280;48624;49.812;8.562;2023-08-06T00:23:27;99663.84;;;15.69;100.00
62333;BME280;48624;49.812;8.562;2023-08-06T00:25:52;99661.59;;;15.82;100.00
62333;BME280;48624;49.812;8.562;2023-08-06T00:28:18;99658.41;;;15.79;100.00
62333;BME280;48624;49.812;8.562;2023-08-06T00:30:43;99652.75;;;15.82;100.00
62333;BME280;48624;49.812;8.562;2023-08-06T00:33:08;99649.66;;;15.68;100.00
62333;BME280;48624;49.812;8.562;2023-08-06T00:35:33;99643.06;;;15.81;100.00
62333;BME280;48624;49.812;8.562;2023-08-06T00:37:59;99636.66;;;15.65;100.00
62333;BME280;48624;49.812;8.562;2023-08-06T00:40:24;99637.38;;;15.76;100.00
62333;BME280;48624;49.812;8.562;2023-08-06T00:42:49;99641.28;;;15.63;100.00
62333;BME280;48624;49.812;8.562;2023-08-06T00:45:15;99621.78;;;15.63;100.00
62333;BME280;48624;49.812;8.562;2023-08-06T00:47:41;99623.91;;;15.59;100.00
62333;BME280;48624;49.812;8.562;2023-08-06T00:50:08;99618.78;;;15.66;100.00
62333;BME280;48624;49.812;8.562;2023-08-06T00:52:34;99614.84;;;15.78;100.00
62333;BME280;48624;49.812;8.562;2023-08-06T00:54:59;99608.81;;;15.76;100.00
62333;BME280;48624;49.812;8.562;2023-08-06T00:57:25;99610.88;;;15.82;100.00
62333;BME280;48624;49.812;8.562;2023-08-06T00:59:53;99611.28;;;15.70;100.00
62333;BME280;48624;49.812;8.562;2023-08-06T01:02:20;99607.72;;;15.87;100.00
62333;BME280;48624;49.812;8.562;2023-08-06T01:04:46;99602.84;;;15.82;100.00
62333;BME280;48624;49.812;8.562;2023-08-06T01:10:14;99598.03;;;15.86;100.00
62333;BME280;48624;49.812;8.562;2023-08-06T01:12:50;99603.00;;;15.81;100.00
62333;BME280;48624;49.812;8.562;2023-08-06T01:15:22;99594.47;;;15.77;100.00
62333;BME280;48624;49.812;8.562;2023-08-06T01:17:50;99599.56;;;15.89;100.00
62333;BME280;48624;49.812;8.562;2023-08-06T01:20:15;99589.78;;;16.06;100.00
62333;BME280;48624;49.812;8.562;2023-08-06T01:22:40;99586.94;;;15.99;100.00
62333;BME280;48624;49.812;8.562;2023-08-06T01:25:06;99576.34;;;15.89;100.00
62333;BME280;48624;49.812;8.562;2023-08-06T01:27:47;99585.09;;;16.00;100.00
62333;BME280;48624;49.812;8.562;2023-08-06T01:30:27;99582.25;;;16.01;100.00
62333;BME280;48624;49.812;8.562;2023-08-06T01:32:59;99584.59;;;16.04;100.00
62333;BME280;48624;49.812;8.562;2023-08-06T01:35:26;99580.84;;;16.23;100.00
62333;BME280;48624;49.812;8.562;2023-08-06T01:37:52;99574.31;;;16.18;100.00
62333;BME280;48624;49.812;8.562;2023-08-06T01:40:19;99578.47;;;16.20;100.00
62333;BME280;48624;49.812;8.562;2023-08-06T01:42:44;99576.28;;;16.16;100.00
62333;BME280;48624;49.812;8.562;2023-08-06T01:45:10;99578.25;;;16.05;100.00
62333;BME280;48624;49.812;8.562;2023-08-06T01:47:36;99580.63;;;16.17;100.00
62333;BME280;48624;49.812;8.562;2023-08-06T01:50:01;99584.81;;;16.19;100.00
62333;BME280;48624;49.812;8.562;2023-08-06T01:52:27;99578.28;;;16.14;100.00
62333;BME280;48624;49.812;8.562;2023-08-06T01:54:54;99569.63;;;16.20;100.00
62333;BME280;48624;49.812;8.562;2023-08-06T01:57:19;99576.84;;;16.36;100.00
62333;BME280;48624;49.812;8.562;2023-08-06T01:59:44;99575.78;;;16.20;100.00
62333;BME280;48624;49.812;8.562;2023-08-06T02:02:10;99575.13;;;16.18;100.00
62333;BME280;48624;49.812;8.562;2023-08-06T02:04:35;99563.81;;;16.25;100.00
62333;BME280;48624;49.812;8.562;2023-08-06T02:07:00;99574.50;;;16.33;99.08
62333;BME280;48624;49.812;8.562;2023-08-06T02:09:25;99572.84;;;16.32;99.03
62333;BME280;48624;49.812;8.562;2023-08-06T02:11:51;99556.13;;;16.30;99.44
62333;BME280;48624;49.812;8.562;2023-08-06T02:14:16;99556.09;;;16.21;99.55
62333;BME280;48624;49.812;8.562;2023-08-06T02:16:42;99564.81;;;16.23;99.62
62333;BME280;48624;49.812;8.562;2023-08-06T02:19:08;99565.44;;;16.17;100.00
62333;BME280;48624;49.812;8.562;2023-08-06T02:21:33;99555.28;;;16.21;99.99
62333;BME280;48624;49.812;8.562;2023-08-06T02:23:59;99553.59;;;16.20;99.65
62333;BME280;48624;49.812;8.562;2023-08-06T02:26:24;99554.13;;;16.32;99.19
62333;BME280;48624;49.812;8.562;2023-08-06T02:28:49;99540.91;;;16.22;98.49
62333;BME280;48624;49.812;8.562;2023-08-06T02:31:15;99542.03;;;16.11;97.61
62333;BME280;48624;49.812;8.562;2023-08-06T02:33:40;99542.41;;;16.16;97.82
62333;BME280;48624;49.812;8.562;2023-08-06T02:36:05;99531.72;;;16.25;97.00
62333;BME280;48624;49.812;8.562;2023-08-06T02:38:31;99528.03;;;16.17;97.14
62333;BME280;48624;49.812;8.562;2023-08-06T02:40:56;99527.38;;;16.15;97.16
62333;BME280;48624;49.812;8.562;2023-08-06T02:43:22;99524.53;;;16.08;97.19
62333;BME280;48624;49.812;8.562;2023-08-06T02:45:47;99530.19;;;16.14;96.34
62333;BME280;48624;49.812;8.562;2023-08-06T02:48:12;99524.31;;;16.02;96.41
62333;BME280;48624;49.812;8.562;2023-08-06T02:50:39;99525.81;;;16.04;96.79
62333;BME280;48624;49.812;8.562;2023-08-06T02:53:05;99521.41;;;15.87;96.91
62333;BME280;48624;49.812;8.562;2023-08-06T02:55:31;99519.47;;;16.05;96.26
62333;BME280;48624;49.812;8.562;2023-08-06T02:57:57;99527.81;;;15.94;96.99
62333;BME280;48624;49.812;8.562;2023-08-06T03:00:22;99526.22;;;16.18;95.88
62333;BME280;48624;49.812;8.562;2023-08-06T03:02:47;99517.31;;;16.09;96.70
62333;BME280;48624;49.812;8.562;2023-08-06T03:05:13;99510.25;;;15.91;97.75
62333;BME280;48624;49.812;8.562;2023-08-06T03:07:38;99508.75;;;15.89;97.45
62333;BME280;48624;49.812;8.562;2023-08-06T03:10:04;99510.56;;;15.88;98.16
62333;BME280;48624;49.812;8.562;2023-08-06T03:12:29;99508.91;;;15.87;98.57
62333;BME280;48624;49.812;8.562;2023-08-06T03:14:56;99508.97;;;15.69;97.93
62333;BME280;48624;49.812;8.562;2023-08-06T03:17:21;99502.97;;;15.67;98.46
62333;BME280;48624;49.812;8.562;2023-08-06T03:19:48;99496.63;;;15.68;98.84
62333;BME280;48624;49.812;8.562;2023-08-06T03:22:13;99495.50;;;15.79;98.62
62333;BME280;48624;49.812;8.562;2023-08-06T03:24:38;99504.81;;;15.66;99.28
62333;BME280;48624;49.812;8.562;2023-08-06T03:27:04;99489.75;;;15.92;97.99
62333;BME280;48624;49.812;8.562;2023-08-06T03:29:29;99495.59;;;15.95;97.79
62333;BME280;48624;49.812;8.562;2023-08-06T03:31:54;99498.66;;;15.74;98.70
62333;BME280;48624;49.812;8.562;2023-08-06T03:34:20;99503.72;;;15.86;98.81
62333;BME280;48624;49.812;8.562;2023-08-06T03:36:45;99498.22;;;15.87;98.30
62333;BME280;48624;49.812;8.562;2023-08-06T03:39:10;99494.69;;;15.87;98.37
62333;BME280;48624;49.812;8.562;2023-08-06T03:41:36;99492.34;;;15.84;98.62
62333;BME280;48624;49.812;8.562;2023-08-06T03:44:01;99490.19;;;15.87;98.62
62333;BME280;48624;49.812;8.562;2023-08-06T03:46:30;99502.09;;;15.93;98.90
62333;BME280;48624;49.812;8.562;2023-08-06T03:48:59;99504.22;;;15.89;98.83
62333;BME280;48624;49.812;8.562;2023-08-06T03:51:24;99502.69;;;15.87;98.77
62333;BME280;48624;49.812;8.562;2023-08-06T03:53:49;99498.09;;;15.97;98.51
62333;BME280;48624;49.812;8.562;2023-08-06T03:56:14;99505.63;;;15.93;100.00
62333;BME280;48624;49.812;8.562;2023-08-06T03:58:40;99502.16;;;16.09;99.48
62333;BME280;48624;49.812;8.562;2023-08-06T04:01:05;99501.44;;;16.07;98.55
62333;BME280;48624;49.812;8.562;2023-08-06T04:03:30;99504.31;;;16.06;98.09
62333;BME280;48624;49.812;8.562;2023-08-06T04:05:55;99506.28;;;15.95;100.00
62333;BME280;48624;49.812;8.562;2023-08-06T04:08:21;99505.63;;;16.02;98.57
62333;BME280;48624;49.812;8.562;2023-08-06T04:10:51;99508.97;;;15.69;100.00
62333;BME280;48624;49.812;8.562;2023-08-06T04:13:17;99506.97;;;15.63;100.00
62333;BME280;48624;49.812;8.562;2023-08-06T04:15:42;99499.41;;;15.50;100.00
62333;BME280;48624;49.812;8.562;2023-08-06T04:18:08;99504.25;;;15.54;100.00
62333;BME280;48624;49.812;8.562;2023-08-06T04:20:33;99496.09;;;15.56;100.00
62333;BME280;48624;49.812;8.562;2023-08-06T04:22:58;99498.72;;;15.48;100.00
62333;BME280;48624;49.812;8.562;2023-08-06T04:25:24;99495.22;;;15.47;100.00
62333;BME280;48624;49.812;8.562;2023-08-06T04:27:49;99494.41;;;15.20;100.00
62333;BME280;48624;49.812;8.562;2023-08-06T04:30:15;99490.91;;;15.20;100.00
62333;BME280;48624;49.812;8.562;2023-08-06T04:32:40;99496.34;;;15.10;100.00
62333;BME280;48624;49.812;8.562;2023-08-06T04:35:06;99489.66;;;15.06;100.00
62333;BME280;48624;49.812;8.562;2023-08-06T04:37:32;99489.66;;;15.06;100.00
62333;BME280;48624;49.812;8.562;2023-08-06T04:39:57;99493.84;;;15.08;100.00
62333;BME280;48624;49.812;8.562;2023-08-06T04:42:22;99493.16;;;15.06;100.00
62333;BME280;48624;49.812;8.562;2023-08-06T04:44:48;99483.69;;;15.12;100.00
62333;BME280;48624;49.812;8.562;2023-08-06T04:47:13;99479.16;;;15.04;100.00
62333;BME280;48624;49.812;8.562;2023-08-06T04:49:38;99486.34;;;15.12;100.00
62333;BME280;48624;49.812;8.562;2023-08-06T04:52:04;99484.88;;;15.09;100.00
62333;BME280;48624;49.812;8.562;2023-08-06T04:54:29;99486.59;;;15.19;100.00
62333;BME280;48624;49.812;8.562;2023-08-06T04:56:54;99494.81;;;15.07;100.00
62333;BME280;48624;49.812;8.562;2023-08-06T04:59:20;99488.88;;;15.14;100.00
62333;BME280;48624;49.812;8.562;2023-08-06T05:01:45;99486.69;;;15.09;100.00
62333;BME280;48624;49.812;8.562;2023-08-06T05:04:11;99490.09;;;14.93;100.00
62333;BME280;48624;49.812;8.562;2023-08-06T05:06:36;99496.81;;;15.05;100.00
62333;BME280;48624;49.812;8.562;2023-08-06T05:09:03;99490.88;;;15.11;100.00
62333;BME280;48624;49.812;8.562;2023-08-06T05:11:28;99494.34;;;15.04;100.00
62333;BME280;48624;49.812;8.562;2023-08-06T05:13:54;99495.78;;;14.98;100.00
62333;BME280;48624;49.812;8.562;2023-08-06T05:16:19;99492.63;;;15.03;100.00
62333;BME280;48624;49.812;8.562;2023-08-06T05:18:44;99501.53;;;14.85;100.00
62333;BME280;48624;49.812;8.562;2023-08-06T05:21:11;99494.50;;;14.84;100.00
62333;BME280;48624;49.812;8.562;2023-08-06T05:23:36;99496.34;;;15.10;100.00
62333;BME280;48624;49.812;8.562;2023-08-06T05:26:01;99495.16;;;15.04;100.00
62333;BME280;48624;49.812;8.562;2023-08-06T05:28:27;99494.13;;;15.32;100.00
62333;BME280;48624;49.812;8.562;2023-08-06T05:30:52;99493.47;;;15.03;100.00
62333;BME280;48624;49.812;8.562;2023-08-06T05:33:17;99492.69;;;15.11;100.00
62333;BME280;48624;49.812;8.562;2023-08-06T05:35:42;99502.53;;;15.10;100.00
62333;BME280;48624;49.812;8.562;2023-08-06T05:38:08;99492.97;;;15.00;100.00
62333;BME280;48624;49.812;8.562;2023-08-06T05:40:36;99491.00;;;15.10;100.00
62333;BME280;48624;49.812;8.562;2023-08-06T05:43:01;99499.66;;;15.04;100.00
62333;BME280;48624;49.812;8.562;2023-08-06T05:45:26;99509.34;;;15.05;100.00
62333;BME280;48624;49.812;8.562;2023-08-06T05:47:52;99502.88;;;15.16;100.00
62333;BME280;48624;49.812;8.562;2023-08-06T05:50:19;99496.88;;;15.14;100.00
62333;BME280;48624;49.812;8.562;2023-08-06T05:52:44;99496.13;;;15.30;100.00
62333;BME280;48624;49.812;8.562;2023-08-06T05:55:10;99503.78;;;15.24;100.00
62333;BME280;48624;49.812;8.562;2023-08-06T05:57:35;99502.34;;;15.12;100.00
62333;BME280;48624;49.812;8.562;2023-08-06T06:00:01;99505.47;;;15.25;100.00
62333;BME280;48624;49.812;8.562;2023-08-06T06:02:27;99508.13;;;15.25;100.00
62333;BME280;48624;49.812;8.562;2023-08-06T06:04:52;99497.88;;;15.12;100.00
62333;BME280;48624;49.812;8.562;2023-08-06T06:07:17;99500.44;;;15.22;100.00
62333;BME280;48624;49.812;8.562;2023-08-06T06:09:43;99501.78;;;15.26;100.00
62333;BME280;48624;49.812;8.562;2023-08-06T06:12:08;99504.50;;;15.35;100.00
62333;BME280;48624;49.812;8.562;2023-08-06T06:14:33;99504.03;;;15.39;100.00
62333;BME280;48624;49.812;8.562;2023-08-06T06:16:59;99511.50;;;15.36;100.00
62333;BME280;48624;49.812;8.562;2023-08-06T06:19:25;99506.97;;;15.28;100.00
62333;BME280;48624;49.812;8.562;2023-08-06T06:21:50;99509.47;;;15.30;100.00
62333;BME280;48624;49.812;8.562;2023-08-06T06:24:16;99514.19;;;15.36;100.00
62333;BME280;48624;49.812;8.562;2023-08-06T06:26:41;99513.03;;;15.38;100.00
62333;BME280;48624;49.812;8.562;2023-08-06T06:29:06;99509.03;;;15.43;100.00
62333;BME280;48624;49.812;8.562;2023-08-06T06:31:32;99508.72;;;15.46;100.00
62333;BME280;48624;49.812;8.562;2023-08-06T06:33:57;99511.72;;;15.43;100.00
62333;BME280;48624;49.812;8.562;2023-08-06T06:36:22;99519.38;;;15.37;100.00
62333;BME280;48624;49.812;8.562;2023-08-06T06:38:48;99512.72;;;15.42;100.00
62333;BME280;48624;49.812;8.562;2023-08-06T06:41:14;99528.75;;;15.50;100.00
62333;BME280;48624;49.812;8.562;2023-08-06T06:43:41;99522.31;;;15.61;100.00
62333;BME280;48624;49.812;8.562;2023-08-06T06:46:07;99514.78;;;15.56;100.00
62333;BME280;48624;49.812;8.562;2023-08-06T06:48:32;99526.06;;;15.42;100.00
62333;BME280;48624;49.812;8.562;2023-08-06T06:50:58;99515.03;;;15.45;100.00
62333;BME280;48624;49.812;8.562;2023-08-06T06:53:24;99524.72;;;15.46;100.00
62333;BME280;48624;49.812;8.562;2023-08-06T06:56:05;99521.19;;;15.37;100.00
62333;BME280;48624;49.812;8.562;2023-08-06T06:58:31;99516.13;;;15.25;100.00
62333;BME280;48624;49.812;8.562;2023-08-06T07:00:56;99515.19;;;15.35;100.00
62333;BME280;48624;49.812;8.562;2023-08-06T07:03:21;99508.44;;;15.22;100.00
62333;BME280;48624;49.812;8.562;2023-08-06T07:05:47;99517.03;;;15.08;100.00
62333;BME280;48624;49.812;8.562;2023-08-06T07:08:12;99519.78;;;14.98;100.00
62333;BME280;48624;49.812;8.562;2023-08-06T07:10:40;99517.91;;;15.17;100.00
62333;BME280;48624;49.812;8.562;2023-08-06T07:13:06;99522.22;;;14.91;100.00
62333;BME280;48624;49.812;8.562;2023-08-06T07:15:31;99521.50;;;15.07;100.00
62333;BME280;48624;49.812;8.562;2023-08-06T07:17:57;99518.03;;;14.89;100.00
62333;BME280;48624;49.812;8.562;2023-08-06T07:20:22;99529.22;;;15.10;100.00
62333;BME280;48624;49.812;8.562;2023-08-06T07:22:47;99523.22;;;15.17;100.00
62333;BME280;48624;49.812;8.562;2023-08-06T07:25:13;99528.94;;;14.95;100.00
62333;BME280;48624;49.812;8.562;2023-08-06T07:27:38;99524.94;;;15.18;100.00
62333;BME280;48624;49.812;8.562;2023-08-06T07:30:04;99524.47;;;15.22;100.00
62333;BME280;48624;49.812;8.562;2023-08-06T07:32:31;99521.03;;;15.12;100.00
62333;BME280;48624;49.812;8.562;2023-08-06T07:34:57;99526.09;;;14.97;100.00
62333;BME280;48624;49.812;8.562;2023-08-06T07:37:25;99528.53;;;15.08;100.00
62333;BME280;48624;49.812;8.562;2023-08-06T07:39:51;99527.22;;;15.12;100.00
62333;BME280;48624;49.812;8.562;2023-08-06T07:42:16;99524.69;;;15.11;100.00
62333;BME280;48624;49.812;8.562;2023-08-06T07:44:41;99525.88;;;15.08;100.00
62333;BME280;48624;49.812;8.562;2023-08-06T07:47:07;99525.13;;;15.24;100.00
62333;BME280;48624;49.812;8.562;2023-08-06T07:49:32;99524.81;;;15.28;100.00
62333;BME280;48624;49.812;8.562;2023-08-06T07:51:58;99514.25;;;15.18;100.00
62333;BME280;48624;49.812;8.562;2023-08-06T07:54:23;99524.56;;;15.12;100.00
62333;BME280;48624;49.812;8.562;2023-08-06T07:56:49;99525.00;;;15.34;100.00
62333;BME280;48624;49.812;8.562;2023-08-06T07:59:15;99523.22;;;15.43;100.00
62333;BME280;48624;49.812;8.562;2023-08-06T08:01:40;99523.91;;;15.45;100.00
62333;BME280;48624;49.812;8.562;2023-08-06T08:04:06;99519.56;;;15.44;100.00
62333;BME280;48624;49.812;8.562;2023-08-06T08:06:33;99515.13;;;15.61;100.00
62333;BME280;48624;49.812;8.562;2023-08-06T08:08:58;99508.47;;;15.57;100.00
62333;BME280;48624;49.812;8.562;2023-08-06T08:11:25;99505.56;;;15.50;100.00
62333;BME280;48624;49.812;8.562;2023-08-06T08:13:50;99511.16;;;15.65;100.00
62333;BME280;48624;49.812;8.562;2023-08-06T08:16:16;99514.56;;;15.84;100.00
62333;BME280;48624;49.812;8.562;2023-08-06T08:18:41;99511.34;;;16.15;100.00
62333;BME280;48624;49.812;8.562;2023-08-06T08:21:06;99507.00;;;16.31;100.00
62333;BME280;48624;49.812;8.562;2023-08-06T08:23:32;99502.03;;;16.61;100.00
62333;BME280;48624;49.812;8.562;2023-08-06T08:25:57;99499.19;;;16.71;100.00
62333;BME280;48624;49.812;8.562;2023-08-06T08:28:23;99491.16;;;16.62;100.00
62333;BME280;48624;49.812;8.562;2023-08-06T08:30:48;99491.16;;;16.62;100.00
62333;BME280;48624;49.812;8.562;2023-08-06T08:33:13;99491.16;;;16.71;100.00
62333;BME280;48624;49.812;8.562;2023-08-06T08:35:52;99488.47;;;16.71;100.00
62333;BME280;48624;49.812;8.562;2023-08-06T08:38:17;99482.28;;;16.78;100.00
62333;BME280;48624;49.812;8.562;2023-08-06T08:40:46;99483.78;;;17.06;100.00
62333;BME280;48624;49.812;8.562;2023-08-06T08:43:15;99488.63;;;17.19;100.00
62333;BME280;48624;49.812;8.562;2023-08-06T08:45:42;99486.59;;;16.96;100.00
62333;BME280;48624;49.812;8.562;2023-08-06T08:48:11;99476.91;;;17.20;100.00
62333;BME280;48624;49.812;8.562;2023-08-06T08:50:38;99471.38;;;17.22;100.00
62333;BME280;48624;49.812;8.562;2023-08-06T08:53:05;99464.63;;;17.34;100.00
62333;BME280;48624;49.812;8.562;2023-08-06T08:55:31;99460.91;;;17.52;100.00
62333;BME280;48624;49.812;8.562;2023-08-06T08:57:56;99470.13;;;17.81;100.00
62333;BME280;48624;49.812;8.562;2023-08-06T09:00:22;99466.78;;;17.47;98.14
62333;BME280;48624;49.812;8.562;2023-08-06T09:02:47;99475.44;;;17.57;98.46
62333;BME280;48624;49.812;8.562;2023-08-06T09:05:13;99465.56;;;17.50;98.93
62333;BME280;48624;49.812;8.562;2023-08-06T09:07:45;99471.66;;;17.75;100.00
62333;BME280;48624;49.812;8.562;2023-08-06T09:10:13;99476.63;;;17.46;98.11
62333;BME280;48624;49.812;8.562;2023-08-06T09:12:39;99460.06;;;17.83;99.94
62333;BME280;48624;49.812;8.562;2023-08-06T09:15:05;99465.38;;;17.59;98.82
62333;BME280;48624;49.812;8.562;2023-08-06T09:17:30;99463.91;;;17.48;98.74
62333;BME280;48624;49.812;8.562;2023-08-06T09:19:56;99463.75;;;17.82;97.88
62333;BME280;48624;49.812;8.562;2023-08-06T09:22:21;99469.81;;;17.75;92.31
62333;BME280;48624;49.812;8.562;2023-08-06T09:24:46;99460.13;;;18.06;95.76
62333;BME280;48624;49.812;8.562;2023-08-06T09:27:13;99463.13;;;17.71;96.64
62333;BME280;48624;49.812;8.562;2023-08-06T09:29:45;99460.84;;;17.92;97.96
62333;BME280;48624;49.812;8.562;2023-08-06T09:32:12;99459.09;;;17.75;94.23
62333;BME280;48624;49.812;8.562;2023-08-06T09:34:46;99458.50;;;17.17;95.03
62333;BME280;48624;49.812;8.562;2023-08-06T09:37:11;99452.53;;;17.46;94.45
62333;BME280;48624;49.812;8.562;2023-08-06T09:39:38;99464.56;;;17.82;97.33
62333;BME280;48624;49.812;8.562;2023-08-06T09:42:04;99457.19;;;18.16;97.06
62333;BME280;48624;49.812;8.562;2023-08-06T09:44:31;99461.97;;;17.97;95.81
62333;BME280;48624;49.812;8.562;2023-08-06T09:46:58;99455.25;;;18.10;94.17
62333;BME280;48624;49.812;8.562;2023-08-06T09:49:39;99450.47;;;18.20;94.21
62333;BME280;48624;49.812;8.562;2023-08-06T09:52:10;99454.25;;;18.49;92.51
62333;BME280;48624;49.812;8.562;2023-08-06T09:54:37;99458.53;;;18.58;93.63
62333;BME280;48624;49.812;8.562;2023-08-06T09:57:02;99457.63;;;18.66;92.64
62333;BME280;48624;49.812;8.562;2023-08-06T09:59:28;99458.59;;;18.89;91.86
62333;BME280;48624;49.812;8.562;2023-08-06T10:01:54;99455.75;;;18.90;88.31
62333;BME280;48624;49.812;8.562;2023-08-06T10:04:20;99468.19;;;18.68;90.57
62333;BME280;48624;49.812;8.562;2023-08-06T10:06:47;99470.91;;;18.44;87.59
62333;BME280;48624;49.812;8.562;2023-08-06T10:09:15;99458.56;;;18.35;87.75
62333;BME280;48624;49.812;8.562;2023-08-06T10:11:42;99470.41;;;18.17;89.14
62333;BME280;48624;49.812;8.562;2023-08-06T10:14:18;99462.34;;;17.94;89.89
62333;BME280;48624;49.812;8.562;2023-08-06T10:16:45;99476.19;;;17.74;93.14
62333;BME280;48624;49.812;8.562;2023-08-06T10:19:12;99475.38;;;17.97;92.59
62333;BME280;48624;49.812;8.562;2023-08-06T10:21:39;99476.38;;;18.05;92.83
62333;BME280;48624;49.812;8.562;2023-08-06T10:24:07;99474.16;;;18.08;94.51
62333;BME280;48624;49.812;8.562;2023-08-06T10:26:35;99486.94;;;18.29;91.89
62333;BME280;48624;49.812;8.562;2023-08-06T10:29:01;99474.59;;;18.43;87.21
62333;BME280;48624;49.812;8.562;2023-08-06T10:31:58;99487.25;;;18.03;88.03
62333;BME280;48624;49.812;8.562;2023-08-06T10:34:25;99483.81;;;18.17;89.08
62333;BME280;48624;49.812;8.562;2023-08-06T10:37:10;99483.41;;;18.52;87.65
62333;BME280;48624;49.812;8.562;2023-08-06T10:39:35;99483.78;;;18.26;87.82
62333;BME280;48624;49.812;8.562;2023-08-06T10:42:01;99486.00;;;18.61;83.42
62333;BME280;48624;49.812;8.562;2023-08-06T10:44:26;99489.78;;;18.28;84.79
62333;BME280;48624;49.812;8.562;2023-08-06T10:46:52;99488.69;;;18.14;86.14
62333;BME280;48624;49.812;8.562;2023-08-06T10:49:17;99498.59;;;18.13;87.09
62333;BME280;48624;49.812;8.562;2023-08-06T10:51:43;99486.81;;;18.23;86.41
62333;BME280;48624;49.812;8.562;2023-08-06T10:54:09;99497.81;;;18.28;84.18
62333;BME280;48624;49.812;8.562;2023-08-06T10:56:39;99508.84;;;18.10;86.97
62333;BME280;48624;49.812;8.562;2023-08-06T10:59:06;99510.19;;;18.76;82.76
62333;BME280;48624;49.812;8.562;2023-08-06T11:01:32;99498.78;;;18.58;84.37
62333;BME280;48624;49.812;8.562;2023-08-06T11:04:02;99506.59;;;19.07;82.30
62333;BME280;48624;49.812;8.562;2023-08-06T11:06:27;99507.31;;;19.01;83.86
62333;BME280;48624;49.812;8.562;2023-08-06T11:08:54;99511.31;;;19.35;79.20
62333;BME280;48624;49.812;8.562;2023-08-06T11:11:20;99512.00;;;19.22;80.95
62333;BME280;48624;49.812;8.562;2023-08-06T11:13:47;99512.72;;;19.16;80.09
62333;BME280;48624;49.812;8.562;2023-08-06T11:16:14;99523.31;;;18.94;80.30
62333;BME280;48624;49.812;8.562;2023-08-06T11:18:40;99532.72;;;19.28;76.09
62333;BME280;48624;49.812;8.562;2023-08-06T11:21:06;99532.19;;;18.71;79.34
62333;BME280;48624;49.812;8.562;2023-08-06T11:23:33;99539.28;;;18.17;83.88
62333;BME280;48624;49.812;8.562;2023-08-06T11:25:59;99540.78;;;17.80;86.27
62333;BME280;48624;49.812;8.562;2023-08-06T11:28:25;99535.16;;;17.98;84.16
62333;BME280;48624;49.812;8.562;2023-08-06T11:30:51;99549.69;;;17.72;85.11
62333;BME280;48624;49.812;8.562;2023-08-06T11:33:23;99560.09;;;18.07;81.83
62333;BME280;48624;49.812;8.562;2023-08-06T11:35:50;99571.44;;;17.77;84.22
62333;BME280;48624;49.812;8.562;2023-08-06T11:38:17;99569.53;;;17.86;84.72
62333;BME280;48624;49.812;8.562;2023-08-06T11:40:45;99580.69;;;17.58;87.03
62333;BME280;48624;49.812;8.562;2023-08-06T11:43:11;99585.59;;;17.46;88.48
62333;BME280;48624;49.812;8.562;2023-08-06T11:45:37;99587.44;;;17.29;88.08
62333;BME280;48624;49.812;8.562;2023-08-06T11:48:03;99586.16;;;17.73;84.34
62333;BME280;48624;49.812;8.562;2023-08-06T11:50:29;99601.69;;;17.21;88.79
62333;BME280;48624;49.812;8.562;2023-08-06T11:53:00;99604.00;;;17.24;87.60
62333;BME280;48624;49.812;8.562;2023-08-06T11:55:26;99610.72;;;17.37;86.69
62333;BME280;48624;49.812;8.562;2023-08-06T11:57:54;99603.34;;;16.81;94.04
62333;BME280;48624;49.812;8.562;2023-08-06T12:00:20;99611.00;;;16.84;95.41
62333;BME280;48624;49.812;8.562;2023-08-06T12:02:48;99618.53;;;16.80;94.48
62333;BME280;48624;49.812;8.562;2023-08-06T12:05:17;99608.81;;;16.71;95.53
62333;BME280;48624;49.812;8.562;2023-08-06T12:07:44;99625.41;;;16.99;93.54
62333;BME280;48624;49.812;8.562;2023-08-06T12:10:11;99628.38;;;16.88;92.58
62333;BME280;48624;49.812;8.562;2023-08-06T12:12:37;99623.09;;;17.13;92.55
62333;BME280;48624;49.812;8.562;2023-08-06T12:15:04;99624.22;;;16.77;91.50
62333;BME280;48624;49.812;8.562;2023-08-06T12:17:32;99642.25;;;16.83;91.25
62333;BME280;48624;49.812;8.562;2023-08-06T12:19:57;99647.13;;;16.88;92.09
62333;BME280;48624;49.812;8.562;2023-08-06T12:22:23;99638.78;;;16.83;89.68
62333;BME280;48624;49.812;8.562;2023-08-06T12:24:48;99646.63;;;16.92;88.56
62333;BME280;48624;49.812;8.562;2023-08-06T12:27:13;99646.13;;;16.89;87.66
62333;BME280;48624;49.812;8.562;2023-08-06T12:29:44;99650.97;;;16.77;88.38
62333;BME280;48624;49.812;8.562;2023-08-06T12:32:11;99662.72;;;17.09;83.73
62333;BME280;48624;49.812;8.562;2023-08-06T12:34:38;99653.31;;;16.88;84.97
62333;BME280;48624;49.812;8.562;2023-08-06T12:37:03;99661.34;;;16.97;83.69
62333;BME280;48624;49.812;8.562;2023-08-06T12:39:29;99667.25;;;17.17;82.33
62333;BME280;48624;49.812;8.562;2023-08-06T12:41:55;99672.09;;;17.05;82.75
62333;BME280;48624;49.812;8.562;2023-08-06T12:44:20;99670.59;;;17.19;80.43
62333;BME280;48624;49.812;8.562;2023-08-06T12:46:46;99680.63;;;17.00;82.60
62333;BME280;48624;49.812;8.562;2023-08-06T12:49:12;99667.06;;;16.94;83.34
62333;BME280;48624;49.812;8.562;2023-08-06T12:51:37;99685.81;;;17.10;80.22
62333;BME280;48624;49.812;8.562;2023-08-06T12:54:02;99689.84;;;17.14;80.56